Time;durP1;ratioP1;P1;durP2;ratioP2;P2;SDS_P1;SDS_P2;PMS_P1;PMS_P2;Temp;Humidity;BMP_temperature;BMP_pressure;BME280_temperature;BME280_humidity;BME280_pressure;Samples;Min_cycle;Max_cycle;Signal;HPM_P1;HPM_P2
2023/06/07 00:01:17;;;;;;;20.63;14.38;;;;;;;-144.47;100.00;52639.59;5012850;28;20108;-70
2023/06/07 00:03:44;;;;;;;20.25;14.57;;;;;;;-144.47;100.00;52687.28;5011319;28;20026;-71
2023/06/07 00:06:10;;;;;;;21.25;14.13;;;;;;;-144.47;100.00;52661.44;5011302;28;20113;-71
2023/06/07 00:08:39;;;;;;;22.63;14.52;;;;;;;-144.47;100.00;52665.44;5011619;28;20101;-71
2023/06/07 00:11:04;;;;;;;18.88;13.50;;;;;;;-144.47;100.00;52639.59;5011001;28;20146;-72
2023/06/07 00:13:30;;;;;;;18.98;14.57;;;;;;;-144.47;100.00;52677.34;5010708;28;20045;-71
2023/06/07 00:15:56;;;;;;;22.98;14.23;;;;;;;-144.47;100.00;52677.34;5011192;28;20026;-70
2023/06/07 00:18:21;;;;;;;23.25;14.68;;;;;;;-144.47;100.00;52665.44;5011830;28;20105;-70
2023/06/07 00:20:49;;;;;;;19.17;14.57;;;;;;;-144.47;100.00;52667.41;5011370;28;20030;-70
2023/06/07 00:23:15;;;;;;;21.15;14.23;;;;;;;-144.47;100.00;52655.50;5011907;28;20048;-70
2023/06/07 00:25:41;;;;;;;26.35;15.48;;;;;;;-144.47;100.00;52653.50;5010804;28;20030;-67
2023/06/07 00:28:07;;;;;;;23.52;14.55;;;;;;;-144.47;100.00;52675.34;5011705;28;20392;-70
2023/06/07 00:30:32;;;;;;;20.83;15.32;;;;;;;-144.47;100.00;52681.31;5010897;28;20026;-70
2023/06/07 00:32:58;;;;;;;21.02;13.85;;;;;;;-144.47;100.00;52657.47;5011452;28;20113;-69
2023/06/07 00:35:23;;;;;;;21.70;14.63;;;;;;;-144.47;100.00;52657.47;5010134;28;20022;-70
2023/06/07 00:37:48;;;;;;;19.95;14.23;;;;;;;-144.47;100.00;52661.44;5010861;28;20463;-69
2023/06/07 00:40:14;;;;;;;19.05;13.80;;;;;;;-144.47;100.00;52661.44;5011289;28;20045;-70
2023/06/07 00:42:40;;;;;;;19.20;13.93;;;;;;;-144.47;100.00;52641.59;5010808;28;20557;-71
2023/06/07 00:45:06;;;;;;;19.45;13.45;;;;;;;-144.47;100.00;52649.53;5010442;28;20049;-70
2023/06/07 00:47:33;;;;;;;17.92;13.23;;;;;;;-144.47;100.00;52673.38;5011193;28;20432;-71
2023/06/07 00:49:58;;;;;;;19.00;13.82;;;;;;;-144.47;100.00;52639.59;5010770;28;20057;-70
2023/06/07 00:52:24;;;;;;;19.95;14.30;;;;;;;-144.47;100.00;52657.47;5010531;28;20483;-70
2023/06/07 00:54:51;;;;;;;19.17;13.30;;;;;;;-144.47;100.00;52687.28;5003948;28;20026;-67
2023/06/07 00:57:16;;;;;;;16.65;12.05;;;;;;;-144.47;100.00;52665.44;5010294;28;20096;-69
2023/06/07 00:59:42;;;;;;;21.65;13.50;;;;;;;-144.47;100.00;52665.44;5010997;28;20029;-72
2023/06/07 01:02:08;;;;;;;17.88;12.30;;;;;;;-144.47;100.00;52639.59;5009238;28;20029;-72
2023/06/07 01:04:39;;;;;;;18.50;13.88;;;;;;;-144.47;100.00;52625.72;5009711;28;20400;-71
2023/06/07 01:07:07;;;;;;;21.08;14.30;;;;;;;-144.47;100.00;52665.44;5010354;28;20605;-71
2023/06/07 01:09:34;;;;;;;18.70;13.13;;;;;;;-144.47;100.00;52671.38;5010589;28;20030;-71
2023/06/07 01:12:03;;;;;;;17.42;13.10;;;;;;;-144.47;100.00;52671.38;5009619;28;20029;-70
2023/06/07 01:14:34;;;;;;;17.85;13.30;;;;;;;-144.47;100.00;52667.41;5009946;28;20487;-72
2023/06/07 01:17:02;;;;;;;18.20;12.15;;;;;;;-144.47;100.00;52683.31;5010607;28;20109;-72
2023/06/07 01:19:29;;;;;;;21.55;13.30;;;;;;;-144.47;100.00;52653.50;5009234;28;20037;-71
2023/06/07 01:22:06;;;;;;;18.70;12.15;;;;;;;-144.47;100.00;52689.25;5010571;28;20575;-71
2023/06/07 01:24:42;;;;;;;19.70;14.23;;;;;;;-144.47;100.00;52671.38;5009609;28;20028;-70
2023/06/07 01:27:07;;;;;;;23.38;14.13;;;;;;;-144.47;100.00;52667.41;5010412;28;20076;-71
2023/06/07 01:29:33;;;;;;;20.30;14.52;;;;;;;-144.47;100.00;52677.34;5010354;28;20106;-70
2023/06/07 01:32:03;;;;;;;20.48;13.63;;;;;;;-144.47;100.00;52673.38;5010467;28;20022;-71
2023/06/07 01:34:29;;;;;;;22.52;14.82;;;;;;;-144.47;100.00;52673.38;5009338;28;20487;-72
2023/06/07 01:36:55;;;;;;;22.70;14.50;;;;;;;-144.47;100.00;52667.41;5010246;28;20030;-69
2023/06/07 01:39:23;;;;;;;18.08;14.85;;;;;;;-144.47;100.00;52693.22;5009685;28;20037;-70
2023/06/07 01:41:50;;;;;;;19.90;15.07;;;;;;;-144.47;100.00;52661.44;5009971;28;20038;-71
2023/06/07 01:44:15;;;;;;;25.90;15.77;;;;;;;-144.47;100.00;52649.53;5009008;28;20064;-70
2023/06/07 01:46:45;;;;;;;19.38;14.60;;;;;;;-144.47;100.00;52663.44;5007231;28;20120;-70
2023/06/07 01:49:12;;;;;;;25.27;17.52;;;;;;;-144.47;100.00;52657.47;5010192;28;20036;-69
2023/06/07 01:51:38;;;;;;;20.90;15.45;;;;;;;-144.47;100.00;52653.50;5010018;28;20033;-69
2023/06/07 01:54:04;;;;;;;20.77;15.82;;;;;;;-144.47;100.00;52669.41;5003152;28;20033;-69
2023/06/07 01:56:47;;;;;;;22.13;14.80;;;;;;;-144.47;100.00;52697.19;5009547;28;20022;-70
2023/06/07 01:59:27;;;;;;;23.48;16.60;;;;;;;-144.47;100.00;52669.41;5010304;28;20701;-70
2023/06/07 02:02:01;;;;;;;24.63;17.92;;;;;;;-144.47;100.00;52689.25;5009392;28;20384;-71
2023/06/07 02:04:30;;;;;;;30.45;18.13;;;;;;;-144.47;100.00;52697.19;5008281;28;20022;-71
2023/06/07 02:07:01;;;;;;;33.60;17.27;;;;;;;-144.47;100.00;52703.16;5009566;28;20026;-71
2023/06/07 02:09:29;;;;;;;24.23;18.17;;;;;;;-144.47;100.00;52681.31;5009646;28;20411;-71
2023/06/07 02:11:55;;;;;;;25.73;19.50;;;;;;;-144.47;100.00;52679.31;5008819;28;20049;-71
2023/06/07 02:14:21;;;;;;;27.85;18.63;;;;;;;-144.47;100.00;52669.41;5007964;28;20025;-70
2023/06/07 02:16:47;;;;;;;29.08;19.42;;;;;;;-144.47;100.00;52677.34;5009311;28;20082;-70
2023/06/07 02:19:13;;;;;;;29.30;19.15;;;;;;;-144.47;100.00;52659.47;5009377;28;20029;-69
2023/06/07 02:21:39;;;;;;;29.00;18.98;;;;;;;-144.47;100.00;52661.44;5009126;28;20049;-68
2023/06/07 02:24:08;;;;;;;25.40;19.00;;;;;;;-144.47;100.00;52667.41;5008493;28;20452;-69
2023/06/07 02:26:33;;;;;;;27.67;18.15;;;;;;;-144.47;100.00;52699.19;5009425;28;20052;-68
2023/06/07 02:28:59;;;;;;;27.05;18.05;;;;;;;-144.47;100.00;52707.13;5009714;28;20057;-70
2023/06/07 02:31:25;;;;;;;28.02;17.48;;;;;;;-144.47;100.00;52675.34;5008163;28;20053;-73
2023/06/07 02:33:51;;;;;;;27.00;17.35;;;;;;;-144.47;100.00;52673.38;5008696;28;20479;-70
2023/06/07 02:36:24;;;;;;;25.52;17.60;;;;;;;-144.47;100.00;52669.41;5008661;28;20069;-71
2023/06/07 02:38:50;;;;;;;25.02;16.88;;;;;;;-144.47;100.00;52655.50;5010009;28;20042;-71
2023/06/07 02:41:15;;;;;;;25.45;18.02;;;;;;;-144.47;100.00;52657.47;5011460;28;20025;-70
2023/06/07 02:43:42;;;;;;;22.17;16.75;;;;;;;-144.47;100.00;52655.50;5009992;28;20034;-70
2023/06/07 02:46:08;;;;;;;28.73;19.13;;;;;;;-144.47;100.00;52667.41;5008645;28;20408;-71
2023/06/07 02:48:33;;;;;;;23.50;16.17;;;;;;;-144.47;100.00;52675.34;5009755;28;20030;-69
2023/06/07 02:50:59;;;;;;;22.65;17.08;;;;;;;-144.47;100.00;52677.34;5007156;28;20042;-71
2023/06/07 02:53:26;;;;;;;22.45;16.80;;;;;;;-144.47;100.00;52653.50;5004105;28;20113;-69
2023/06/07 02:55:51;;;;;;;22.88;16.80;;;;;;;-144.47;100.00;52689.25;5011544;28;20105;-70
2023/06/07 02:58:17;;;;;;;24.35;18.38;;;;;;;-144.47;100.00;52671.38;5013737;28;20036;-69
2023/06/07 03:00:49;;;;;;;24.70;18.50;;;;;;;-144.47;100.00;52671.38;5013419;28;20049;-71
2023/06/07 03:03:17;;;;;;;22.10;16.77;;;;;;;-144.47;100.00;52685.28;5012572;28;20022;-68
2023/06/07 03:05:48;;;;;;;24.57;18.07;;;;;;;-144.47;100.00;52677.34;5012008;28;20388;-71
2023/06/07 03:08:13;;;;;;;23.75;17.35;;;;;;;-144.47;100.00;52693.22;5013319;28;20255;-71
2023/06/07 03:10:39;;;;;;;25.95;17.00;;;;;;;-144.47;100.00;52673.38;5011736;28;20037;-70
2023/06/07 03:13:04;;;;;;;27.15;17.15;;;;;;;-144.47;100.00;52673.38;5012705;28;20487;-69
2023/06/07 03:15:30;;;;;;;21.38;15.48;;;;;;;-144.47;100.00;52685.28;5012045;28;20216;-71
2023/06/07 03:17:55;;;;;;;26.38;16.75;;;;;;;-144.47;100.00;52699.19;5012746;28;20030;-69
2023/06/07 03:20:21;;;;;;;26.17;16.08;;;;;;;-144.47;100.00;52657.47;5012525;28;20052;-66
2023/06/07 03:22:47;;;;;;;25.05;16.17;;;;;;;-144.47;100.00;52677.34;5012336;28;20096;-70
2023/06/07 03:25:12;;;;;;;24.65;16.17;;;;;;;-144.47;100.00;52699.19;5010190;28;20100;-69
2023/06/07 03:27:38;;;;;;;21.88;16.00;;;;;;;-144.47;100.00;52697.19;5012738;28;20221;-70
2023/06/07 03:30:06;;;;;;;24.17;16.17;;;;;;;-144.47;100.00;52661.44;5012368;28;20029;-72
2023/06/07 03:32:32;;;;;;;23.45;16.15;;;;;;;-144.47;100.00;52671.38;5012022;28;20030;-69
2023/06/07 03:34:57;;;;;;;21.75;16.05;;;;;;;-144.47;100.00;52677.34;5011186;28;20087;-72
2023/06/07 03:37:23;;;;;;;23.25;16.42;;;;;;;-144.47;100.00;52673.38;5012541;28;20116;-71
2023/06/07 03:39:48;;;;;;;22.60;15.77;;;;;;;-144.47;100.00;52709.13;5011269;28;20480;-71
2023/06/07 03:42:14;;;;;;;22.80;15.55;;;;;;;-144.47;100.00;52713.09;5012565;28;20030;-70
2023/06/07 03:44:42;;;;;;;20.15;16.23;;;;;;;-144.47;100.00;52681.31;5010523;28;20053;-71
2023/06/07 03:47:07;;;;;;;26.90;17.17;;;;;;;-144.47;100.00;52699.19;5012293;28;20022;-71
2023/06/07 03:49:33;;;;;;;24.23;15.38;;;;;;;-144.47;100.00;52675.34;5011743;28;20387;-71
2023/06/07 03:51:58;;;;;;;25.95;16.45;;;;;;;-144.47;100.00;52691.25;5012476;28;20022;-72
2023/06/07 03:54:24;;;;;;;24.15;16.05;;;;;;;-144.47;100.00;52675.34;5005357;28;20105;-72
2023/06/07 03:56:50;;;;;;;21.73;15.57;;;;;;;-144.47;100.00;52691.25;5011836;28;20014;-70
2023/06/07 03:59:19;;;;;;;25.73;16.25;;;;;;;-144.47;100.00;52673.38;5014797;28;20502;-71
2023/06/07 04:01:45;;;;;;;21.35;15.52;;;;;;;-144.47;100.00;52693.22;5012197;28;20026;-68
2023/06/07 04:04:10;;;;;;;21.40;15.60;;;;;;;-144.47;100.00;52685.28;5011173;28;20037;-70
2023/06/07 04:06:36;;;;;;;20.05;15.20;;;;;;;-144.47;100.00;52683.31;5011188;28;20025;-72
2023/06/07 04:09:02;;;;;;;22.00;16.02;;;;;;;-144.47;100.00;52689.25;5012039;28;20029;-73
2023/06/07 04:11:28;;;;;;;19.90;14.98;;;;;;;-144.47;100.00;52677.34;5007807;28;20026;-72
2023/06/07 04:13:53;;;;;;;23.13;16.15;;;;;;;-144.47;100.00;52695.22;5011165;28;20036;-72
2023/06/07 04:16:19;;;;;;;23.67;16.13;;;;;;;-144.47;100.00;52693.22;5011546;28;20018;-70
2023/06/07 04:18:45;;;;;;;21.92;17.13;;;;;;;-144.47;100.00;52691.25;5011371;28;20618;-71
2023/06/07 04:21:10;;;;;;;25.98;16.65;;;;;;;-144.47;100.00;52695.22;5010768;28;20030;-70
2023/06/07 04:23:36;;;;;;;24.50;15.70;;;;;;;-144.47;100.00;52681.31;5011327;28;20045;-72
2023/06/07 04:26:05;;;;;;;29.92;16.40;;;;;;;-144.47;100.00;52679.31;5010719;28;20061;-71
2023/06/07 04:28:32;;;;;;;19.25;15.13;;;;;;;-144.47;100.00;52671.38;5012064;28;20048;-70
2023/06/07 04:30:58;;;;;;;19.65;14.15;;;;;;;-144.47;100.00;52711.09;5023236;23;20046;-67
2023/06/07 04:33:24;;;;;;;54.88;14.90;;;;;;;-144.47;100.00;52659.47;5010856;28;20033;-67
2023/06/07 04:35:57;;;;;;;18.17;13.15;;;;;;;-144.47;100.00;52691.25;5008351;28;20119;-64
2023/06/07 04:38:24;;;;;;;20.50;13.40;;;;;;;-144.47;100.00;52677.34;5011355;28;20068;-64
2023/06/07 04:40:53;;;;;;;16.98;12.00;;;;;;;-144.47;100.00;52667.41;5003028;28;20407;-67
2023/06/07 04:43:19;;;;;;;21.33;13.30;;;;;;;-144.47;100.00;52659.47;4989257;28;20101;-66
2023/06/07 04:46:04;;;;;;;20.13;13.32;;;;;;;-144.47;100.00;52657.47;4989321;28;20038;-69
2023/06/07 04:48:31;;;;;;;19.35;12.90;;;;;;;-144.47;100.00;52655.50;4994985;28;20505;-67
2023/06/07 04:51:03;;;;;;;19.58;11.73;;;;;;;-144.47;100.00;52709.13;4992993;28;20117;-66
2023/06/07 04:53:34;;;;;;;16.42;11.52;;;;;;;-144.47;100.00;52675.34;4989699;28;20173;-67
2023/06/07 04:55:59;;;;;;;16.38;11.52;;;;;;;-144.47;100.00;52677.34;4989302;28;20033;-67
2023/06/07 04:58:25;;;;;;;16.13;11.85;;;;;;;-144.47;100.00;52685.28;4992288;28;20030;-62
2023/06/07 05:00:51;;;;;;;18.38;11.52;;;;;;;-144.47;100.00;52671.38;4990713;28;20113;-67
2023/06/07 05:03:21;;;;;;;17.30;10.48;;;;;;;-144.47;100.00;52679.31;4990952;28;20069;-66
2023/06/07 05:05:50;;;;;;;16.80;11.32;;;;;;;-144.47;100.00;52659.47;4988932;28;20150;-67
2023/06/07 05:08:16;;;;;;;15.18;10.38;;;;;;;-144.47;100.00;52671.38;4990839;28;20053;-65
2023/06/07 05:10:41;;;;;;;15.82;11.02;;;;;;;-144.47;100.00;52655.50;4989925;28;20034;-68
2023/06/07 05:13:06;;;;;;;22.58;12.23;;;;;;;-144.47;100.00;52667.41;4991121;28;20022;-66
2023/06/07 05:15:32;;;;;;;15.07;10.10;;;;;;;-144.47;100.00;52661.44;4989145;28;20472;-67
2023/06/07 05:17:58;;;;;;;15.38;9.65;;;;;;;-144.47;100.00;52685.28;4990909;28;20034;-65
2023/06/07 05:20:24;;;;;;;17.05;9.23;;;;;;;-144.47;100.00;52681.31;4991132;28;20029;-66
2023/06/07 05:22:50;;;;;;;13.18;8.05;;;;;;;-144.47;100.00;52669.41;4988926;28;20030;-68
2023/06/07 05:25:16;;;;;;;13.65;9.45;;;;;;;-144.47;100.00;52673.38;4990164;28;20555;-64
2023/06/07 05:27:42;;;;;;;15.38;9.95;;;;;;;-144.47;100.00;52683.31;4986213;28;20026;-67
2023/06/07 05:30:08;;;;;;;13.80;9.35;;;;;;;-144.47;100.00;52697.19;4981741;28;20042;-67
2023/06/07 05:32:36;;;;;;;13.43;9.45;;;;;;;-144.47;100.00;52681.31;4987413;28;20049;-66
2023/06/07 05:35:03;;;;;;;12.77;9.00;;;;;;;-144.47;100.00;52681.31;4985885;28;20022;-68
2023/06/07 05:37:31;;;;;;;13.00;9.23;;;;;;;-144.47;100.00;52701.19;4985659;28;20030;-63
2023/06/07 05:39:57;;;;;;;13.80;9.68;;;;;;;-144.47;100.00;52665.44;4985932;28;20117;-66
2023/06/07 05:42:23;;;;;;;16.58;10.50;;;;;;;-144.47;100.00;52663.44;4989516;28;20030;-67
2023/06/07 05:44:49;;;;;;;21.42;10.57;;;;;;;-144.47;100.00;52713.09;4987860;28;20026;-65
2023/06/07 05:47:16;;;;;;;21.60;10.57;;;;;;;-144.47;100.00;52657.47;4988712;28;20026;-66
2023/06/07 05:49:44;;;;;;;19.80;11.35;;;;;;;-144.47;100.00;52667.41;4990076;28;20030;-65
2023/06/07 05:52:09;;;;;;;18.55;12.70;;;;;;;-144.47;100.00;52661.44;4989842;28;20101;-66
2023/06/07 05:54:38;;;;;;;19.58;13.35;;;;;;;-144.47;100.00;52669.41;4988137;28;20774;-67
2023/06/07 05:57:03;;;;;;;24.13;12.15;;;;;;;-144.47;100.00;52701.19;4987735;28;20081;-66
2023/06/07 05:59:29;;;;;;;22.35;12.90;;;;;;;-144.47;100.00;52677.34;4989621;28;20026;-65
2023/06/07 06:01:54;;;;;;;20.23;13.35;;;;;;;-144.47;100.00;52683.31;4989512;28;20539;-67
2023/06/07 06:04:19;;;;;;;19.23;11.50;;;;;;;-144.47;100.00;52681.31;4988855;28;20036;-67
2023/06/07 06:06:45;;;;;;;17.40;10.63;;;;;;;-144.47;100.00;52687.28;4990046;28;20069;-67
2023/06/07 06:09:10;;;;;;;16.70;11.45;;;;;;;-144.47;100.00;52669.41;4990106;28;20034;-67
2023/06/07 06:11:35;;;;;;;17.95;10.65;;;;;;;-144.47;100.00;52657.47;4983642;28;20488;-62
2023/06/07 06:14:01;;;;;;;20.55;11.02;;;;;;;-144.47;100.00;52683.31;4991427;28;20489;-67
2023/06/07 06:16:26;;;;;;;14.60;10.45;;;;;;;-144.47;100.00;52677.34;4991368;28;20037;-66
2023/06/07 06:18:52;;;;;;;17.85;10.02;;;;;;;-144.47;100.00;52685.28;4990446;28;20026;-66
2023/06/07 06:21:17;;;;;;;18.10;10.93;;;;;;;-144.47;100.00;52685.28;4989453;28;20154;-65
2023/06/07 06:23:43;;;;;;;23.92;11.70;;;;;;;-144.47;100.00;52709.13;4983871;28;20073;-67
2023/06/07 06:26:08;;;;;;;17.40;11.18;;;;;;;-144.47;100.00;52679.31;4987273;28;20033;-66
2023/06/07 06:28:33;;;;;;;15.82;11.80;;;;;;;-144.47;100.00;52687.28;4989007;28;20034;-68
2023/06/07 06:31:01;;;;;;;22.58;12.10;;;;;;;-144.47;100.00;52699.19;4988871;28;20030;-66
2023/06/07 06:33:27;;;;;;;19.80;12.18;;;;;;;-144.47;100.00;52687.28;4984105;28;20504;-65
2023/06/07 06:35:53;;;;;;;16.30;12.10;;;;;;;-144.47;100.00;52663.44;4987805;28;20036;-67
2023/06/07 06:38:19;;;;;;;24.63;13.05;;;;;;;-144.47;100.00;52701.19;4990779;28;20085;-65
2023/06/07 06:40:45;;;;;;;17.92;11.25;;;;;;;-144.47;100.00;52671.38;4988512;28;20050;-66
2023/06/07 06:43:10;;;;;;;15.20;10.23;;;;;;;-144.47;100.00;52671.38;4989408;28;20073;-66
2023/06/07 06:45:36;;;;;;;18.25;11.57;;;;;;;-144.47;100.00;52691.25;4988834;28;20383;-66
2023/06/07 06:48:01;;;;;;;17.52;12.18;;;;;;;-144.47;100.00;52681.31;4987136;28;20022;-67
2023/06/07 06:50:29;;;;;;;19.45;11.45;;;;;;;-144.47;100.00;52677.34;4988390;28;20022;-65
2023/06/07 06:52:54;;;;;;;14.82;10.35;;;;;;;-144.47;100.00;52679.31;4987680;28;20045;-66
2023/06/07 06:55:20;;;;;;;15.88;10.00;;;;;;;-144.47;100.00;52671.38;4986347;28;20065;-66
2023/06/07 06:57:45;;;;;;;15.65;10.18;;;;;;;-144.47;100.00;52697.19;4989553;28;20022;-66
2023/06/07 07:00:11;;;;;;;17.00;10.07;;;;;;;-144.47;100.00;52689.25;4989651;28;20432;-67
2023/06/07 07:02:37;;;;;;;18.70;9.45;;;;;;;-144.47;99.93;52685.28;4987766;28;20026;-64
2023/06/07 07:05:05;;;;;;;15.75;9.38;;;;;;;-144.47;100.00;52703.16;4983941;28;20392;-67
2023/06/07 07:07:31;;;;;;;16.50;9.55;;;;;;;-144.47;99.70;52679.31;4989000;28;20085;-68
2023/06/07 07:09:57;;;;;;;15.73;9.50;;;;;;;-144.47;99.71;52697.19;4984294;28;20031;-67
2023/06/07 07:12:23;;;;;;;24.17;9.77;;;;;;;-144.47;99.27;52675.34;4989307;28;20022;-68
2023/06/07 07:14:49;;;;;;;15.73;9.45;;;;;;;-144.47;98.70;52683.31;4988654;28;20030;-66
2023/06/07 07:17:20;;;;;;;19.35;10.10;;;;;;;-144.47;99.64;52673.38;4989322;28;20061;-67
2023/06/07 07:19:46;;;;;;;25.55;12.35;;;;;;;-144.47;99.60;52687.28;4989401;28;20083;-66
2023/06/07 07:22:11;;;;;;;15.45;9.43;;;;;;;-144.47;98.21;52681.31;4989320;28;20629;-66
2023/06/07 07:24:37;;;;;;;18.33;9.65;;;;;;;-144.47;97.39;52685.28;4987157;28;20030;-67
2023/06/07 07:27:03;;;;;;;17.15;10.25;;;;;;;-144.47;95.92;52677.34;4989714;28;20520;-67
2023/06/07 07:29:28;;;;;;;16.58;9.65;;;;;;;-144.47;96.14;52691.25;4989872;28;20549;-65
2023/06/07 07:31:54;;;;;;;15.48;9.70;;;;;;;-144.47;95.35;52689.25;4990235;28;20122;-67
2023/06/07 07:34:19;;;;;;;15.63;9.07;;;;;;;-144.47;94.43;52671.38;4989185;28;20034;-67
2023/06/07 07:36:45;;;;;;;20.15;10.18;;;;;;;-144.47;94.98;52695.22;4989885;28;20080;-64
2023/06/07 07:39:11;;;;;;;13.75;8.98;;;;;;;-144.47;93.04;52693.22;4989544;28;20639;-68
2023/06/07 07:41:40;;;;;;;17.33;9.88;;;;;;;-144.47;93.43;52691.25;4990346;28;20058;-64
2023/06/07 07:44:05;;;;;;;19.55;9.02;;;;;;;-144.47;93.18;52703.16;4992802;28;20096;-65
2023/06/07 07:46:31;;;;;;;15.52;9.30;;;;;;;-144.47;93.28;52675.34;4992685;28;20026;-67
2023/06/07 07:48:56;;;;;;;18.88;10.77;;;;;;;-144.47;94.23;52673.38;4992144;28;20081;-67
2023/06/07 07:51:21;;;;;;;15.45;8.77;;;;;;;-144.47;93.23;52671.38;4990366;28;20071;-66
2023/06/07 07:53:47;;;;;;;19.63;9.55;;;;;;;-144.47;94.57;52681.31;4985497;28;20014;-65
2023/06/07 07:56:13;;;;;;;20.60;9.85;;;;;;;-144.47;91.18;52689.25;4984516;28;20049;-66
2023/06/07 07:58:38;;;;;;;15.15;9.75;;;;;;;-144.47;90.45;52663.44;4992706;28;20080;-65
2023/06/07 08:01:04;;;;;;;14.63;9.10;;;;;;;-144.47;89.92;52687.28;4992781;28;20034;-67
2023/06/07 08:03:30;;;;;;;13.95;8.80;;;;;;;-144.47;87.98;52677.34;4988729;28;20030;-65
2023/06/07 08:05:56;;;;;;;18.42;9.95;;;;;;;-144.47;88.38;52673.38;4993181;28;20019;-66
2023/06/07 08:08:21;;;;;;;15.02;9.45;;;;;;;-144.47;87.58;52685.28;4993390;28;20431;-67
2023/06/07 08:10:48;;;;;;;17.70;9.55;;;;;;;-144.47;87.89;52661.44;4987694;28;20038;-65
2023/06/07 08:13:14;;;;;;;15.70;9.68;;;;;;;-144.47;86.91;52679.31;4992557;28;20026;-66
2023/06/07 08:15:40;;;;;;;16.58;9.55;;;;;;;-144.47;85.80;52685.28;4991864;28;20548;-67
2023/06/07 08:18:06;;;;;;;13.57;9.82;;;;;;;-144.47;86.82;52665.44;4991670;28;20394;-66
2023/06/07 08:20:32;;;;;;;13.68;9.55;;;;;;;-144.47;86.89;52681.31;4991430;28;20396;-67
2023/06/07 08:22:57;;;;;;;17.98;9.95;;;;;;;-144.47;86.01;52689.25;4989901;28;20038;-66
2023/06/07 08:25:23;;;;;;;17.83;9.52;;;;;;;-144.47;84.80;52685.28;4989054;28;20022;-67
2023/06/07 08:27:48;;;;;;;17.52;8.82;;;;;;;-144.47;84.87;52693.22;4991858;28;20022;-67
2023/06/07 08:30:14;;;;;;;22.02;9.65;;;;;;;-144.47;84.45;52657.47;4992170;28;20038;-67
2023/06/07 08:32:40;;;;;;;16.40;9.57;;;;;;;-144.47;84.32;52695.22;4993294;28;20038;-67
2023/06/07 08:35:07;;;;;;;16.40;9.25;;;;;;;-144.47;84.74;52683.31;4988911;28;20405;-67
2023/06/07 08:37:33;;;;;;;14.20;8.65;;;;;;;-144.47;84.62;52683.31;4991512;28;20022;-65
2023/06/07 08:39:58;;;;;;;14.63;8.90;;;;;;;-144.47;78.77;52663.44;4991119;28;20391;-66
2023/06/07 08:42:25;;;;;;;17.80;8.55;;;;;;;-144.47;78.23;52679.31;4991108;28;20022;-66
2023/06/07 08:44:50;;;;;;;15.65;8.90;;;;;;;-144.47;79.06;52683.31;4990759;28;20032;-67
2023/06/07 08:47:17;;;;;;;13.95;8.00;;;;;;;-144.47;77.77;52691.25;4991029;28;20030;-66
2023/06/07 08:49:46;;;;;;;13.73;8.13;;;;;;;-144.47;78.86;52671.38;4991498;28;20031;-66
2023/06/07 08:52:12;;;;;;;20.20;8.90;;;;;;;-144.47;80.14;52679.31;4990754;28;20539;-67
2023/06/07 08:54:42;;;;;;;17.20;8.70;;;;;;;-144.47;79.18;52663.44;4986455;28;20019;-66
2023/06/07 08:57:09;;;;;;;19.38;8.93;;;;;;;-144.47;80.81;52677.34;4989313;28;20029;-66
2023/06/07 08:59:36;;;;;;;17.73;9.25;;;;;;;-144.47;79.06;52669.41;4990993;28;20037;-67
2023/06/07 09:02:03;;;;;;;16.27;8.88;;;;;;;-144.47;77.72;52705.16;4990892;28;20022;-67
2023/06/07 09:04:29;;;;;;;12.30;8.40;;;;;;;-144.47;76.45;52689.25;4989949;28;20049;-67
2023/06/07 09:06:54;;;;;;;18.55;9.30;;;;;;;-144.47;78.29;52705.16;4990971;28;20081;-67
2023/06/07 09:09:20;;;;;;;14.63;9.32;;;;;;;-144.47;77.82;52683.31;4991070;28;20022;-67
2023/06/07 09:11:51;;;;;;;12.90;8.00;;;;;;;-144.47;74.44;52689.25;4990870;28;20113;-65
2023/06/07 09:14:16;;;;;;;14.52;8.65;;;;;;;-144.47;74.89;52695.22;4990105;28;20022;-65
2023/06/07 09:16:53;;;;;;;17.60;8.98;;;;;;;-144.47;76.32;52701.19;4991002;28;20092;-66
2023/06/07 09:19:41;;;;;;;16.60;9.70;;;;;;;-144.47;76.30;52691.25;4989756;28;20129;-66
2023/06/07 09:22:08;;;;;;;16.13;8.93;;;;;;;-144.47;74.61;52673.38;4990826;28;20026;-67
2023/06/07 09:24:35;;;;;;;19.05;8.80;;;;;;;-144.47;73.48;52719.06;4990079;28;20447;-66
2023/06/07 09:27:02;;;;;;;15.38;8.10;;;;;;;-144.47;72.50;52701.19;4990653;28;20019;-64
2023/06/07 09:29:29;;;;;;;22.13;7.82;;;;;;;-144.47;72.13;52693.22;4990778;28;20022;-67
2023/06/07 09:32:18;;;;;;;13.75;7.65;;;;;;;-144.47;69.57;52677.34;4990582;28;20034;-66
2023/06/07 09:34:44;;;;;;;14.70;6.60;;;;;;;-144.47;66.43;52697.19;4989848;28;20089;-65
2023/06/07 09:37:09;;;;;;;14.77;6.55;;;;;;;-144.47;66.70;52695.22;4990491;28;20030;-66
2023/06/07 09:39:37;;;;;;;15.80;7.00;;;;;;;-144.47;67.68;52709.13;4990818;28;20033;-66
2023/06/07 09:42:13;;;;;;;10.75;6.60;;;;;;;-144.47;67.16;52693.22;4990295;28;20435;-66
2023/06/07 09:44:39;;;;;;;16.55;6.88;;;;;;;-144.47;65.83;52695.22;4989810;28;20516;-66
2023/06/07 09:47:05;;;;;;;11.15;6.97;;;;;;;-144.47;65.65;52681.31;4990454;28;20026;-64
2023/06/07 09:49:34;;;;;;;11.63;7.57;;;;;;;-144.47;67.30;52697.19;4989712;28;20030;-67
2023/06/07 09:52:03;;;;;;;;;;;;;;;-144.47;66.90;52671.38;4990362;28;20019;-65
2023/06/07 09:54:42;;;;;;;11.32;5.90;;;;;;;-144.47;63.98;52677.34;4988990;28;19976;-66
2023/06/07 09:57:27;;;;;;;12.70;6.53;;;;;;;-144.47;62.79;52685.28;4982348;28;20057;-65
2023/06/07 10:00:07;;;;;;;13.88;6.80;;;;;;;-144.47;64.03;52693.22;4987610;28;20392;-64
2023/06/07 10:02:32;;;;;;;12.45;6.50;;;;;;;-144.47;61.95;52671.38;4989760;28;20049;-66
2023/06/07 10:04:59;;;;;;;11.75;6.30;;;;;;;-144.47;61.24;52685.28;4987705;28;20642;-64
2023/06/07 10:07:31;;;;;;;9.10;5.90;;;;;;;-144.47;61.04;52671.38;4989844;28;20456;-66
2023/06/07 10:09:58;;;;;;;19.30;6.55;;;;;;;-144.47;59.95;52693.22;4990128;28;20026;-66
2023/06/07 10:12:31;;;;;;;19.33;5.43;;;;;;;-144.47;59.63;52689.25;4983330;28;20077;-66
2023/06/07 10:15:00;;;;;;;14.65;5.53;;;;;;;-144.47;57.93;52689.25;4989327;28;20441;-63
2023/06/07 10:17:32;;;;;;;12.13;5.88;;;;;;;-144.47;58.60;52677.34;4990242;28;20085;-65
2023/06/07 10:20:03;;;;;;;10.23;5.70;;;;;;;-144.47;57.83;52701.19;4990057;28;20040;-65
2023/06/07 10:22:36;;;;;;;9.40;5.80;;;;;;;-144.47;58.60;52707.13;4990147;28;20026;-66
2023/06/07 10:25:18;;;;;;;12.52;6.45;;;;;;;-144.47;57.06;52697.19;4989352;28;20022;-66
2023/06/07 10:27:55;;;;;;;9.43;5.15;;;;;;;-144.47;57.26;52732.94;4990559;28;20022;-66
2023/06/07 10:30:24;;;;;;;14.50;6.50;;;;;;;-144.47;56.48;52705.16;4993557;28;20026;-66
2023/06/07 10:32:52;;;;;;;12.10;5.50;;;;;;;-144.47;55.66;52697.19;5018063;23;20050;-71
2023/06/07 10:35:19;;;;;;;10.43;5.43;;;;;;;-144.47;55.32;52711.09;5007754;28;20032;-71
2023/06/07 10:37:50;;;;;;;17.05;5.63;;;;;;;-144.47;54.69;52701.19;5008790;28;20113;-70
2023/06/07 10:40:16;;;;;;;8.15;5.13;;;;;;;-144.47;52.99;52677.34;5009463;28;20057;-69
2023/06/07 10:42:44;;;;;;;13.23;5.22;;;;;;;-144.47;52.84;52711.09;5009015;28;20026;-70
2023/06/07 10:45:14;;;;;;;8.60;4.88;;;;;;;-144.47;51.07;52713.09;5007744;28;20075;-71
2023/06/07 10:47:43;;;;;;;10.95;4.90;;;;;;;-144.47;50.53;52721.03;5009178;28;20079;-71
2023/06/07 10:50:27;;;;;;;10.48;4.97;;;;;;;-144.47;51.69;52715.06;5008548;28;20026;-69
2023/06/07 10:52:56;;;;;;;11.93;5.72;;;;;;;-144.47;51.50;52723.03;5007428;28;20057;-70
2023/06/07 10:55:26;;;;;;;8.57;4.78;;;;;;;-144.47;50.98;52709.13;5000104;28;20173;-69
2023/06/07 10:57:52;;;;;;;8.50;5.03;;;;;;;-144.47;49.90;52683.31;5006663;28;20049;-69
2023/06/07 11:00:28;;;;;;;12.48;4.65;;;;;;;-144.47;50.07;52717.06;5009479;28;20578;-70